Flight Track Log - Related Links

Times and Time Zones

All times are in EDT time to prevent confusion due to time zone crossing. See the ASQ2542 flight status page for this flight to view local times or setup timezone preferences in your user account.

Time Position Orientation Groundspeed Altitude Reporting Facility
EDT Latitude Longitude Course Direction KTS MPH feet Rate Location/Type
Mon 02:17:08 PM 27.7539 -97.4933 245° Southwest 137 158 900  Level Houston Center
Mon 02:17:51 PM 27.7406 -97.5261 245° Southwest 172 198 2,500 1,841 Climbing Houston Center
Mon 02:18:36 PM 27.7675 -97.5586 313° West 234 269 3,600 1,900 Climbing Houston Center
Mon 02:18:51 PM 27.7836 -97.5744 319° Northwest 232 267 4,400 2,806 Climbing Houston Center
Mon 02:19:38 PM 27.8181 -97.6111 317° Northwest 247 284 6,500 2,587 Climbing Houston Center
Mon 02:20:40 PM 27.8664 -97.6625 317° Northwest 244 281 9,100 2,352 Climbing Houston Center
Mon 02:21:43 PM 27.9183 -97.7122 320° Northwest 243 280 11,400 1,872 Climbing Houston Center
Mon 02:22:45 PM 27.9978 -97.7703 327° Northwest 264 304 13,000 1,694 Climbing Houston Center
Mon 02:23:47 PM 28.0664 -97.8308 322° Northwest 296 341 14,900 1,839 Climbing Houston Center
Mon 02:24:49 PM 28.1061 -97.9167 298° West 305 351 16,800 1,839 Climbing Houston Center
Mon 02:25:51 PM 28.1469 -98.0011 299° West 306 352 18,700 1,452 Climbing Houston Center
Mon 02:26:53 PM 28.2386 -98.0431 338° Northwest 343 395 19,800 1,065 Climbing Houston Center
Mon 02:27:55 PM 28.3522 -98.0881 341° North 363 418 20,900 968 Climbing Houston Center
Mon 02:28:57 PM 28.4572 -98.1300 341° North 375 432 21,800 677 Climbing Houston Center
Mon 02:29:59 PM 28.5669 -98.1658 344° North 402 463 22,300 528 Climbing Houston Center
Mon 02:31:02 PM 28.6825 -98.1972 347° North 421 484 22,900 672 Climbing Houston Center
Mon 02:32:04 PM 28.8086 -98.2328 346° North 430 495 23,700 774 Climbing Houston Center
Mon 02:33:06 PM 28.9350 -98.2669 347° North 432 497 24,500 726 Climbing Houston Center
Mon 02:34:08 PM 29.0528 -98.2986 347° North 434 499 25,200 677 Climbing Houston Center
Mon 02:35:10 PM 29.1825 -98.3119 355° North 443 510 25,900 581 Climbing Houston Center
Mon 02:36:12 PM 29.3086 -98.3053 North 451 519 26,400 532 Climbing Houston Center
Mon 02:37:14 PM 29.4436 -98.2972 North 452 520 27,000 532 Climbing Houston Center
Mon 02:38:16 PM 29.5697 -98.2897 North 456 525 27,500 480 Climbing Houston Center
Mon 02:39:19 PM 29.7056 -98.2828 North 458 527 28,000 480 Climbing Houston Center
Mon 02:40:21 PM 29.8317 -98.2761 North 455 524 28,500 484 Climbing Houston Center
Mon 02:41:23 PM 29.9669 -98.2681 North 453 521 29,000 242 Climbing Houston Center
Mon 02:42:25 PM 30.0942 -98.2611 North 459 528 29,000  Level Houston Center
Mon 02:43:27 PM 30.2319 -98.2533 North 459 528 29,000  Level Houston Center
Mon 02:44:29 PM 30.3492 -98.2481 North 467 537 29,000  Level Houston Center
Mon 02:45:31 PM 30.4817 -98.2408 North 470 541 29,000  Level Houston Center
Mon 02:46:33 PM 30.6153 -98.2336 North 472 543 29,000  Level Houston Center
Mon 02:47:35 PM 30.7700 -98.2256 North 471 542 29,000  Level Houston Center
Mon 02:48:38 PM 30.9056 -98.2169 North 476 548 29,000  Level Houston Center
Mon 02:49:15 PM 30.9914 -98.2131 North 471 542 29,000  Level Fort Worth Center
Mon 02:50:15 PM 31.1106 -98.2042 North 471 542 29,000  Level Fort Worth Center
Mon 02:51:15 PM 31.2442 -98.2006 North 476 548 29,000  Level Fort Worth Center
Mon 02:52:15 PM 31.3736 -98.1919 North 476 548 29,000  Level Fort Worth Center
Mon 02:53:15 PM 31.5011 -98.1833 North 471 542 29,000 -350 Level Fort Worth Center
Mon 02:54:15 PM 31.6372 -98.1258 20° North 465 535 28,300 -1,400 Descending Fort Worth Center
Mon 02:55:15 PM 31.7503 -98.0436 32° Northeast 459 528 26,200 -2,050 Descending Fort Worth Center
Mon 02:56:15 PM 31.8633 -97.9614 32° Northeast 465 535 24,200 -2,100 Descending Fort Worth Center
Mon 02:57:15 PM 31.9639 -97.8836 33° Northeast 452 520 22,000 -2,000 Descending Fort Worth Center
Mon 02:58:15 PM 32.0539 -97.8178 32° Northeast 428 493 20,200 -1,750 Descending Fort Worth Center
Mon 02:59:15 PM 32.1608 -97.7397 32° Northeast 411 473 18,500 -1,900 Descending Fort Worth Center
Mon 03:00:15 PM 32.2422 -97.6786 32° Northeast 403 464 16,400 -2,350 Descending Fort Worth Center
Mon 03:01:15 PM 32.3447 -97.6028 32° Northeast 398 458 13,800 -2,250 Descending Fort Worth Center
Mon 03:02:15 PM 32.4242 -97.5414 33° Northeast 386 444 11,900 -1,400 Descending Fort Worth Center
Mon 03:03:15 PM 32.5119 -97.4553 40° Northeast 375 432 11,000 -450 Descending Fort Worth Center
Mon 03:04:15 PM 32.5767 -97.3789 45° Northeast 362 417 11,000  Level Fort Worth Center
Mon 03:05:15 PM 32.6558 -97.2850 45° Northeast 362 417 11,000  Level Fort Worth Center
Mon 03:06:15 PM 32.7100 -97.2183 46° Northeast 330 380 11,000  Level Fort Worth Center
Mon 03:07:15 PM 32.7767 -97.1711 31° Northeast 280 322 11,000 -650 Level Fort Worth Center
Mon 03:08:15 PM 32.8497 -97.1686 North 263 303 9,700 -1,450 Descending Fort Worth Center
Mon 03:09:15 PM 32.9250 -97.1658 North 263 303 8,100 -1,450 Descending Fort Worth Center
Mon 03:10:15 PM 33.0022 -97.1658 360° North 268 308 6,800 -1,350 Descending Fort Worth Center
Mon 03:11:15 PM 33.0753 -97.1481 12° North 254 292 5,400 -1,271 Descending Fort Worth Center
Mon 03:12:13 PM 33.0833 -97.0833 82° East 227 261 4,300 -1,062 Descending Dallas / Fort Worth TRACON
Mon 03:13:08 PM 33.0667 -97.0500 121° Southeast 155 178 3,400 -843 Descending Dallas / Fort Worth TRACON
Mon 03:14:14 PM 33.0167 -97.0500 180° South 159 183 2,600 -750 Descending Dallas / Fort Worth TRACON
Mon 03:15:08 PM 32.9833 -97.0500 180° South 138 159 1,900 -684 Descending Dallas / Fort Worth TRACON
Mon 03:16:08 PM 32.9500 -97.0500 180° South 124 143 1,300 -600 Descending Dallas / Fort Worth TRACON

Login

Don't have an account? Register now (free) for customized features, flight alerts, and more!